sensor_id;sensor_type;location;lat;lon;timestamp;P1;durP1;ratioP1;P2;durP2;ratioP2
59054;SDS011;44845;51.444;7.460;2022-10-18T00:00:42;6.55;;;2.22;;
59054;SDS011;44845;51.444;7.460;2022-10-18T00:03:07;10.27;;;2.28;;
59054;SDS011;44845;51.444;7.460;2022-10-18T00:05:32;8.48;;;1.77;;
59054;SDS011;44845;51.444;7.460;2022-10-18T00:07:58;5.60;;;2.00;;
59054;SDS011;44845;51.444;7.460;2022-10-18T00:10:24;7.95;;;2.03;;
59054;SDS011;44845;51.444;7.460;2022-10-18T00:12:49;6.18;;;2.05;;
59054;SDS011;44845;51.444;7.460;2022-10-18T00:15:15;5.47;;;2.20;;
59054;SDS011;44845;51.444;7.460;2022-10-18T00:17:40;4.68;;;2.00;;
59054;SDS011;44845;51.444;7.460;2022-10-18T00:20:06;10.25;;;2.38;;
59054;SDS011;44845;51.444;7.460;2022-10-18T00:22:38;7.20;;;2.22;;
59054;SDS011;44845;51.444;7.460;2022-10-18T00:25:05;5.75;;;2.47;;
59054;SDS011;44845;51.444;7.460;2022-10-18T00:27:31;7.28;;;2.08;;
59054;SDS011;44845;51.444;7.460;2022-10-18T00:29:58;5.97;;;2.33;;
59054;SDS011;44845;51.444;7.460;2022-10-18T00:32:24;4.13;;;1.83;;
59054;SDS011;44845;51.444;7.460;2022-10-18T00:34:50;6.45;;;2.30;;
59054;SDS011;44845;51.444;7.460;2022-10-18T00:37:15;4.30;;;1.95;;
59054;SDS011;44845;51.444;7.460;2022-10-18T00:39:41;5.13;;;2.28;;
59054;SDS011;44845;51.444;7.460;2022-10-18T00:42:06;5.13;;;1.98;;
59054;SDS011;44845;51.444;7.460;2022-10-18T00:47:06;5.75;;;2.60;;
59054;SDS011;44845;51.444;7.460;2022-10-18T00:49:34;6.22;;;1.92;;
59054;SDS011;44845;51.444;7.460;2022-10-18T00:52:28;7.45;;;2.38;;
59054;SDS011;44845;51.444;7.460;2022-10-18T00:54:55;6.20;;;2.25;;
59054;SDS011;44845;51.444;7.460;2022-10-18T00:57:21;5.28;;;1.95;;
59054;SDS011;44845;51.444;7.460;2022-10-18T00:59:48;4.97;;;2.20;;
59054;SDS011;44845;51.444;7.460;2022-10-18T01:02:13;8.38;;;2.35;;
59054;SDS011;44845;51.444;7.460;2022-10-18T01:04:42;9.63;;;2.13;;
59054;SDS011;44845;51.444;7.460;2022-10-18T01:07:18;4.32;;;2.22;;
59054;SDS011;44845;51.444;7.460;2022-10-18T01:10:24;4.82;;;2.22;;
59054;SDS011;44845;51.444;7.460;2022-10-18T01:13:37;5.00;;;2.42;;
59054;SDS011;44845;51.444;7.460;2022-10-18T01:18:36;7.80;;;2.95;;
59054;SDS011;44845;51.444;7.460;2022-10-18T01:31:56;10.38;;;2.25;;
59054;SDS011;44845;51.444;7.460;2022-10-18T01:37:44;11.20;;;2.10;;
59054;SDS011;44845;51.444;7.460;2022-10-18T01:40:11;5.03;;;2.40;;
59054;SDS011;44845;51.444;7.460;2022-10-18T01:42:38;4.20;;;2.55;;
59054;SDS011;44845;51.444;7.460;2022-10-18T01:45:04;4.00;;;2.03;;
59054;SDS011;44845;51.444;7.460;2022-10-18T01:47:31;8.13;;;2.78;;
59054;SDS011;44845;51.444;7.460;2022-10-18T01:49:58;12.25;;;2.80;;
59054;SDS011;44845;51.444;7.460;2022-10-18T01:52:25;12.63;;;3.05;;
59054;SDS011;44845;51.444;7.460;2022-10-18T01:54:50;8.07;;;3.25;;
59054;SDS011;44845;51.444;7.460;2022-10-18T02:00:14;3.92;;;3.00;;
59054;SDS011;44845;51.444;7.460;2022-10-18T02:05:51;8.88;;;3.08;;
59054;SDS011;44845;51.444;7.460;2022-10-18T02:11:01;8.05;;;2.83;;
59054;SDS011;44845;51.444;7.460;2022-10-18T02:13:30;7.53;;;3.00;;
59054;SDS011;44845;51.444;7.460;2022-10-18T02:16:00;5.30;;;2.83;;
59054;SDS011;44845;51.444;7.460;2022-10-18T02:18:41;3.55;;;2.72;;
59054;SDS011;44845;51.444;7.460;2022-10-18T02:21:15;5.20;;;2.90;;
59054;SDS011;44845;51.444;7.460;2022-10-18T02:23:44;7.03;;;2.70;;
59054;SDS011;44845;51.444;7.460;2022-10-18T02:26:10;6.20;;;2.70;;
59054;SDS011;44845;51.444;7.460;2022-10-18T02:28:37;13.82;;;3.08;;
59054;SDS011;44845;51.444;7.460;2022-10-18T02:33:49;4.55;;;2.85;;
59054;SDS011;44845;51.444;7.460;2022-10-18T02:36:22;5.32;;;3.05;;
59054;SDS011;44845;51.444;7.460;2022-10-18T02:38:59;4.70;;;2.92;;
59054;SDS011;44845;51.444;7.460;2022-10-18T02:41:29;4.70;;;2.35;;
59054;SDS011;44845;51.444;7.460;2022-10-18T02:43:55;6.78;;;3.22;;
59054;SDS011;44845;51.444;7.460;2022-10-18T02:46:21;3.38;;;2.72;;
59054;SDS011;44845;51.444;7.460;2022-10-18T02:48:46;5.80;;;2.72;;
59054;SDS011;44845;51.444;7.460;2022-10-18T02:51:12;6.13;;;3.15;;
59054;SDS011;44845;51.444;7.460;2022-10-18T02:53:37;5.30;;;3.00;;
59054;SDS011;44845;51.444;7.460;2022-10-18T02:56:02;10.75;;;3.30;;
59054;SDS011;44845;51.444;7.460;2022-10-18T02:58:28;8.98;;;3.65;;
59054;SDS011;44845;51.444;7.460;2022-10-18T03:00:53;5.32;;;3.13;;
59054;SDS011;44845;51.444;7.460;2022-10-18T03:03:19;7.45;;;2.83;;
59054;SDS011;44845;51.444;7.460;2022-10-18T03:05:47;8.18;;;3.42;;
59054;SDS011;44845;51.444;7.460;2022-10-18T03:08:13;8.55;;;3.25;;
59054;SDS011;44845;51.444;7.460;2022-10-18T03:10:38;9.18;;;3.08;;
59054;SDS011;44845;51.444;7.460;2022-10-18T03:13:03;8.95;;;3.35;;
59054;SDS011;44845;51.444;7.460;2022-10-18T03:15:29;5.47;;;3.45;;
59054;SDS011;44845;51.444;7.460;2022-10-18T03:17:54;7.28;;;2.92;;
59054;SDS011;44845;51.444;7.460;2022-10-18T03:20:19;4.70;;;3.08;;
59054;SDS011;44845;51.444;7.460;2022-10-18T03:22:45;8.23;;;3.40;;
59054;SDS011;44845;51.444;7.460;2022-10-18T03:25:10;6.15;;;3.30;;
59054;SDS011;44845;51.444;7.460;2022-10-18T03:27:35;5.70;;;3.20;;
59054;SDS011;44845;51.444;7.460;2022-10-18T03:30:01;6.07;;;3.58;;
59054;SDS011;44845;51.444;7.460;2022-10-18T03:32:26;6.55;;;3.33;;
59054;SDS011;44845;51.444;7.460;2022-10-18T03:34:52;8.45;;;3.28;;
59054;SDS011;44845;51.444;7.460;2022-10-18T03:37:17;11.55;;;3.58;;
59054;SDS011;44845;51.444;7.460;2022-10-18T03:39:42;8.27;;;3.42;;
59054;SDS011;44845;51.444;7.460;2022-10-18T03:42:08;7.85;;;3.42;;
59054;SDS011;44845;51.444;7.460;2022-10-18T03:44:33;6.00;;;3.50;;
59054;SDS011;44845;51.444;7.460;2022-10-18T03:46:58;5.43;;;3.50;;
59054;SDS011;44845;51.444;7.460;2022-10-18T03:49:23;9.35;;;3.88;;
59054;SDS011;44845;51.444;7.460;2022-10-18T03:51:49;10.05;;;3.65;;
59054;SDS011;44845;51.444;7.460;2022-10-18T03:54:14;12.60;;;3.60;;
59054;SDS011;44845;51.444;7.460;2022-10-18T03:56:39;8.35;;;3.90;;
59054;SDS011;44845;51.444;7.460;2022-10-18T03:59:05;9.40;;;4.35;;
59054;SDS011;44845;51.444;7.460;2022-10-18T04:01:30;13.52;;;3.88;;
59054;SDS011;44845;51.444;7.460;2022-10-18T04:03:56;6.35;;;3.75;;
59054;SDS011;44845;51.444;7.460;2022-10-18T04:06:21;4.57;;;3.10;;
59054;SDS011;44845;51.444;7.460;2022-10-18T04:08:46;6.72;;;3.45;;
59054;SDS011;44845;51.444;7.460;2022-10-18T04:11:12;6.82;;;4.03;;
59054;SDS011;44845;51.444;7.460;2022-10-18T04:13:37;9.60;;;3.97;;
59054;SDS011;44845;51.444;7.460;2022-10-18T04:16:03;11.80;;;3.88;;
59054;SDS011;44845;51.444;7.460;2022-10-18T04:18:28;6.93;;;4.20;;
59054;SDS011;44845;51.444;7.460;2022-10-18T04:20:53;14.75;;;4.25;;
59054;SDS011;44845;51.444;7.460;2022-10-18T04:23:19;8.40;;;4.13;;
59054;SDS011;44845;51.444;7.460;2022-10-18T04:25:44;11.32;;;4.45;;
59054;SDS011;44845;51.444;7.460;2022-10-18T04:28:09;5.22;;;4.03;;
59054;SDS011;44845;51.444;7.460;2022-10-18T04:30:35;5.88;;;4.35;;
59054;SDS011;44845;51.444;7.460;2022-10-18T04:33:00;7.53;;;4.53;;
59054;SDS011;44845;51.444;7.460;2022-10-18T04:35:25;7.60;;;4.03;;
59054;SDS011;44845;51.444;7.460;2022-10-18T04:37:52;8.07;;;4.80;;
59054;SDS011;44845;51.444;7.460;2022-10-18T04:40:18;8.95;;;4.28;;
59054;SDS011;44845;51.444;7.460;2022-10-18T04:42:44;5.70;;;4.40;;
59054;SDS011;44845;51.444;7.460;2022-10-18T04:45:09;7.57;;;4.32;;
59054;SDS011;44845;51.444;7.460;2022-10-18T04:47:35;11.75;;;4.68;;
59054;SDS011;44845;51.444;7.460;2022-10-18T04:50:00;11.05;;;5.32;;
59054;SDS011;44845;51.444;7.460;2022-10-18T04:52:25;8.10;;;4.72;;
59054;SDS011;44845;51.444;7.460;2022-10-18T04:54:51;8.02;;;4.82;;
59054;SDS011;44845;51.444;7.460;2022-10-18T04:57:16;11.50;;;6.30;;
59054;SDS011;44845;51.444;7.460;2022-10-18T04:59:41;11.05;;;5.93;;
59054;SDS011;44845;51.444;7.460;2022-10-18T05:02:07;11.20;;;5.40;;
59054;SDS011;44845;51.444;7.460;2022-10-18T05:04:32;11.02;;;6.05;;
59054;SDS011;44845;51.444;7.460;2022-10-18T05:06:58;8.82;;;5.47;;
59054;SDS011;44845;51.444;7.460;2022-10-18T05:09:23;9.20;;;6.03;;
59054;SDS011;44845;51.444;7.460;2022-10-18T05:11:48;10.23;;;6.03;;
59054;SDS011;44845;51.444;7.460;2022-10-18T05:14:14;8.77;;;5.93;;
59054;SDS011;44845;51.444;7.460;2022-10-18T05:16:39;6.97;;;5.38;;
59054;SDS011;44845;51.444;7.460;2022-10-18T05:19:05;8.77;;;6.53;;
59054;SDS011;44845;51.444;7.460;2022-10-18T05:21:30;9.63;;;6.38;;
59054;SDS011;44845;51.444;7.460;2022-10-18T05:23:55;11.25;;;6.80;;
59054;SDS011;44845;51.444;7.460;2022-10-18T05:26:21;11.70;;;6.70;;
59054;SDS011;44845;51.444;7.460;2022-10-18T05:28:47;11.82;;;7.40;;
59054;SDS011;44845;51.444;7.460;2022-10-18T05:31:13;10.77;;;6.90;;
59054;SDS011;44845;51.444;7.460;2022-10-18T05:33:38;10.63;;;7.70;;
59054;SDS011;44845;51.444;7.460;2022-10-18T05:36:04;14.38;;;7.68;;
59054;SDS011;44845;51.444;7.460;2022-10-18T05:38:29;11.52;;;6.80;;
59054;SDS011;44845;51.444;7.460;2022-10-18T05:40:55;13.00;;;7.07;;
59054;SDS011;44845;51.444;7.460;2022-10-18T05:43:21;16.27;;;7.85;;
59054;SDS011;44845;51.444;7.460;2022-10-18T05:45:50;11.68;;;7.15;;
59054;SDS011;44845;51.444;7.460;2022-10-18T05:48:15;8.45;;;6.35;;
59054;SDS011;44845;51.444;7.460;2022-10-18T05:50:41;11.25;;;7.22;;
59054;SDS011;44845;51.444;7.460;2022-10-18T05:53:07;12.82;;;7.65;;
59054;SDS011;44845;51.444;7.460;2022-10-18T05:55:32;16.25;;;8.57;;
59054;SDS011;44845;51.444;7.460;2022-10-18T05:57:57;13.38;;;7.90;;
59054;SDS011;44845;51.444;7.460;2022-10-18T06:00:23;12.75;;;8.45;;
59054;SDS011;44845;51.444;7.460;2022-10-18T06:02:48;11.93;;;8.57;;
59054;SDS011;44845;51.444;7.460;2022-10-18T06:05:13;13.25;;;8.63;;
59054;SDS011;44845;51.444;7.460;2022-10-18T06:07:39;17.13;;;9.52;;
59054;SDS011;44845;51.444;7.460;2022-10-18T06:10:04;19.30;;;9.57;;
59054;SDS011;44845;51.444;7.460;2022-10-18T06:12:30;14.80;;;9.68;;
59054;SDS011;44845;51.444;7.460;2022-10-18T06:14:55;14.88;;;9.73;;
59054;SDS011;44845;51.444;7.460;2022-10-18T06:17:20;17.15;;;9.45;;
59054;SDS011;44845;51.444;7.460;2022-10-18T06:19:46;17.15;;;10.13;;
59054;SDS011;44845;51.444;7.460;2022-10-18T06:22:11;13.90;;;9.10;;
59054;SDS011;44845;51.444;7.460;2022-10-18T06:24:36;14.85;;;8.27;;
59054;SDS011;44845;51.444;7.460;2022-10-18T06:27:02;14.88;;;8.85;;
59054;SDS011;44845;51.444;7.460;2022-10-18T06:29:36;12.60;;;9.20;;
59054;SDS011;44845;51.444;7.460;2022-10-18T06:32:03;18.95;;;10.00;;
59054;SDS011;44845;51.444;7.460;2022-10-18T06:34:29;16.88;;;9.85;;
59054;SDS011;44845;51.444;7.460;2022-10-18T06:36:55;14.80;;;9.20;;
59054;SDS011;44845;51.444;7.460;2022-10-18T06:39:20;16.38;;;10.75;;
59054;SDS011;44845;51.444;7.460;2022-10-18T06:41:45;16.42;;;10.73;;
59054;SDS011;44845;51.444;7.460;2022-10-18T06:44:11;22.95;;;12.88;;
59054;SDS011;44845;51.444;7.460;2022-10-18T06:46:39;21.38;;;13.73;;
59054;SDS011;44845;51.444;7.460;2022-10-18T06:49:06;25.73;;;13.25;;
59054;SDS011;44845;51.444;7.460;2022-10-18T06:51:31;23.30;;;15.07;;
59054;SDS011;44845;51.444;7.460;2022-10-18T06:53:56;22.67;;;13.90;;
59054;SDS011;44845;51.444;7.460;2022-10-18T06:56:22;19.27;;;13.52;;
59054;SDS011;44845;51.444;7.460;2022-10-18T06:58:47;22.92;;;13.60;;
59054;SDS011;44845;51.444;7.460;2022-10-18T07:01:13;20.45;;;14.10;;
59054;SDS011;44845;51.444;7.460;2022-10-18T07:03:40;28.52;;;14.48;;
59054;SDS011;44845;51.444;7.460;2022-10-18T07:06:06;26.80;;;14.60;;
59054;SDS011;44845;51.444;7.460;2022-10-18T07:08:33;25.45;;;14.43;;
59054;SDS011;44845;51.444;7.460;2022-10-18T07:10:58;29.70;;;14.90;;
59054;SDS011;44845;51.444;7.460;2022-10-18T07:13:25;27.15;;;14.40;;
59054;SDS011;44845;51.444;7.460;2022-10-18T07:15:58;20.73;;;13.55;;
59054;SDS011;44845;51.444;7.460;2022-10-18T07:18:37;21.48;;;14.32;;
59054;SDS011;44845;51.444;7.460;2022-10-18T07:21:05;26.42;;;14.95;;
59054;SDS011;44845;51.444;7.460;2022-10-18T07:23:36;24.23;;;14.77;;
59054;SDS011;44845;51.444;7.460;2022-10-18T07:26:05;28.17;;;14.40;;
59054;SDS011;44845;51.444;7.460;2022-10-18T07:28:36;23.88;;;14.82;;
59054;SDS011;44845;51.444;7.460;2022-10-18T07:31:05;23.08;;;14.75;;
59054;SDS011;44845;51.444;7.460;2022-10-18T07:33:32;21.10;;;13.82;;
59054;SDS011;44845;51.444;7.460;2022-10-18T07:36:02;21.83;;;14.55;;
59054;SDS011;44845;51.444;7.460;2022-10-18T07:38:29;22.25;;;14.02;;
59054;SDS011;44845;51.444;7.460;2022-10-18T07:40:55;23.08;;;13.88;;
59054;SDS011;44845;51.444;7.460;2022-10-18T07:43:22;23.25;;;14.80;;
59054;SDS011;44845;51.444;7.460;2022-10-18T07:45:54;26.25;;;15.70;;
59054;SDS011;44845;51.444;7.460;2022-10-18T07:48:21;25.27;;;16.42;;
59054;SDS011;44845;51.444;7.460;2022-10-18T07:50:46;23.48;;;15.13;;
59054;SDS011;44845;51.444;7.460;2022-10-18T07:53:12;24.42;;;15.45;;
59054;SDS011;44845;51.444;7.460;2022-10-18T07:55:37;27.58;;;16.40;;
59054;SDS011;44845;51.444;7.460;2022-10-18T07:58:03;27.70;;;16.05;;
59054;SDS011;44845;51.444;7.460;2022-10-18T08:00:29;24.90;;;15.48;;
59054;SDS011;44845;51.444;7.460;2022-10-18T08:02:55;22.50;;;14.82;;
59054;SDS011;44845;51.444;7.460;2022-10-18T08:05:21;23.42;;;14.95;;
59054;SDS011;44845;51.444;7.460;2022-10-18T08:07:46;24.80;;;15.88;;
59054;SDS011;44845;51.444;7.460;2022-10-18T08:10:12;22.40;;;15.15;;
59054;SDS011;44845;51.444;7.460;2022-10-18T08:12:37;25.52;;;15.82;;
59054;SDS011;44845;51.444;7.460;2022-10-18T08:15:03;32.40;;;15.70;;
59054;SDS011;44845;51.444;7.460;2022-10-18T08:17:28;27.25;;;16.40;;
59054;SDS011;44845;51.444;7.460;2022-10-18T08:19:54;29.13;;;17.15;;
59054;SDS011;44845;51.444;7.460;2022-10-18T08:22:19;25.25;;;17.13;;
59054;SDS011;44845;51.444;7.460;2022-10-18T08:24:46;30.08;;;17.88;;
59054;SDS011;44845;51.444;7.460;2022-10-18T08:27:12;33.40;;;18.88;;
59054;SDS011;44845;51.444;7.460;2022-10-18T08:29:37;30.35;;;17.67;;
59054;SDS011;44845;51.444;7.460;2022-10-18T08:32:03;31.13;;;18.77;;
59054;SDS011;44845;51.444;7.460;2022-10-18T08:34:28;34.78;;;20.48;;
59054;SDS011;44845;51.444;7.460;2022-10-18T08:36:54;32.00;;;19.48;;
59054;SDS011;44845;51.444;7.460;2022-10-18T08:39:19;31.27;;;21.10;;
59054;SDS011;44845;51.444;7.460;2022-10-18T08:41:54;33.47;;;20.63;;
59054;SDS011;44845;51.444;7.460;2022-10-18T08:44:23;30.00;;;19.95;;
59054;SDS011;44845;51.444;7.460;2022-10-18T08:46:52;30.48;;;19.20;;
59054;SDS011;44845;51.444;7.460;2022-10-18T08:49:27;38.85;;;22.40;;
59054;SDS011;44845;51.444;7.460;2022-10-18T08:51:58;38.30;;;22.60;;
59054;SDS011;44845;51.444;7.460;2022-10-18T08:54:36;44.08;;;23.45;;
59054;SDS011;44845;51.444;7.460;2022-10-18T08:57:10;36.30;;;22.93;;
59054;SDS011;44845;51.444;7.460;2022-10-18T08:59:39;39.00;;;23.35;;
59054;SDS011;44845;51.444;7.460;2022-10-18T09:02:15;36.05;;;22.33;;
59054;SDS011;44845;51.444;7.460;2022-10-18T09:07:35;36.40;;;21.95;;
59054;SDS011;44845;51.444;7.460;2022-10-18T09:15:56;41.65;;;24.88;;
59054;SDS011;44845;51.444;7.460;2022-10-18T09:20:58;43.97;;;26.80;;
59054;SDS011;44845;51.444;7.460;2022-10-18T09:23:39;43.58;;;27.17;;
59054;SDS011;44845;51.444;7.460;2022-10-18T09:26:17;43.60;;;27.15;;
59054;SDS011;44845;51.444;7.460;2022-10-18T09:31:29;48.22;;;28.30;;
59054;SDS011;44845;51.444;7.460;2022-10-18T09:34:25;49.38;;;28.10;;
59054;SDS011;44845;51.444;7.460;2022-10-18T09:37:01;49.75;;;29.02;;
59054;SDS011;44845;51.444;7.460;2022-10-18T09:39:29;47.22;;;28.55;;
59054;SDS011;44845;51.444;7.460;2022-10-18T09:44:50;48.80;;;29.17;;
59054;SDS011;44845;51.444;7.460;2022-10-18T09:47:31;48.85;;;29.52;;
59054;SDS011;44845;51.444;7.460;2022-10-18T09:50:02;50.60;;;28.65;;
59054;SDS011;44845;51.444;7.460;2022-10-18T09:52:40;48.58;;;29.33;;
59054;SDS011;44845;51.444;7.460;2022-10-18T09:55:25;51.28;;;28.90;;
59054;SDS011;44845;51.444;7.460;2022-10-18T09:57:57;51.30;;;29.63;;
59054;SDS011;44845;51.444;7.460;2022-10-18T10:00:33;47.38;;;28.73;;
59054;SDS011;44845;51.444;7.460;2022-10-18T10:03:11;45.38;;;28.55;;
59054;SDS011;44845;51.444;7.460;2022-10-18T10:05:38;46.77;;;28.33;;
59054;SDS011;44845;51.444;7.460;2022-10-18T10:08:04;45.25;;;27.42;;
59054;SDS011;44845;51.444;7.460;2022-10-18T10:10:29;43.40;;;28.27;;
59054;SDS011;44845;51.444;7.460;2022-10-18T10:13:15;46.03;;;27.85;;
59054;SDS011;44845;51.444;7.460;2022-10-18T10:15:53;46.20;;;29.25;;
59054;SDS011;44845;51.444;7.460;2022-10-18T10:18:21;45.80;;;27.02;;
59054;SDS011;44845;51.444;7.460;2022-10-18T10:20:54;45.75;;;28.38;;
59054;SDS011;44845;51.444;7.460;2022-10-18T10:23:28;44.97;;;27.13;;
59054;SDS011;44845;51.444;7.460;2022-10-18T10:28:26;52.00;;;30.13;;
59054;SDS011;44845;51.444;7.460;2022-10-18T10:30:54;48.65;;;30.20;;
59054;SDS011;44845;51.444;7.460;2022-10-18T10:33:57;57.17;;;32.50;;
59054;SDS011;44845;51.444;7.460;2022-10-18T10:36:25;57.22;;;31.13;;
59054;SDS011;44845;51.444;7.460;2022-10-18T10:39:04;54.80;;;31.80;;
59054;SDS011;44845;51.444;7.460;2022-10-18T10:41:31;54.83;;;33.20;;
59054;SDS011;44845;51.444;7.460;2022-10-18T10:43:57;52.53;;;32.35;;
59054;SDS011;44845;51.444;7.460;2022-10-18T10:46:25;52.72;;;31.23;;
59054;SDS011;44845;51.444;7.460;2022-10-18T10:48:58;51.85;;;31.60;;
59054;SDS011;44845;51.444;7.460;2022-10-18T10:56:55;53.03;;;34.25;;
59054;SDS011;44845;51.444;7.460;2022-10-18T10:59:24;49.50;;;32.28;;
59054;SDS011;44845;51.444;7.460;2022-10-18T11:02:25;54.28;;;31.63;;
59054;SDS011;44845;51.444;7.460;2022-10-18T11:04:46;51.42;;;31.85;;
59054;SDS011;44845;51.444;7.460;2022-10-18T11:07:24;48.35;;;30.95;;
59054;SDS011;44845;51.444;7.460;2022-10-18T11:10:00;49.25;;;31.52;;
59054;SDS011;44845;51.444;7.460;2022-10-18T11:17:46;56.25;;;31.77;;
59054;SDS011;44845;51.444;7.460;2022-10-18T11:20:15;44.05;;;29.75;;
59054;SDS011;44845;51.444;7.460;2022-10-18T11:25:37;51.60;;;30.65;;
59054;SDS011;44845;51.444;7.460;2022-10-18T11:28:24;45.15;;;29.80;;
59054;SDS011;44845;51.444;7.460;2022-10-18T11:31:04;46.10;;;29.77;;
59054;SDS011;44845;51.444;7.460;2022-10-18T11:34:31;44.40;;;31.15;;
59054;SDS011;44845;51.444;7.460;2022-10-18T11:39:52;47.75;;;32.95;;
59054;SDS011;44845;51.444;7.460;2022-10-18T11:42:52;45.42;;;32.83;;
59054;SDS011;44845;51.444;7.460;2022-10-18T11:45:37;42.97;;;31.52;;
59054;SDS011;44845;51.444;7.460;2022-10-18T11:51:16;44.85;;;31.83;;
59054;SDS011;44845;51.444;7.460;2022-10-18T11:56:57;44.20;;;32.35;;
59054;SDS011;44845;51.444;7.460;2022-10-18T12:05:15;46.72;;;34.15;;
59054;SDS011;44845;51.444;7.460;2022-10-18T12:08:27;48.95;;;32.55;;
59054;SDS011;44845;51.444;7.460;2022-10-18T12:10:32;40.83;;;29.85;;
59054;SDS011;44845;51.444;7.460;2022-10-18T12:13:02;47.20;;;31.42;;
59054;SDS011;44845;51.444;7.460;2022-10-18T12:15:30;44.75;;;30.17;;
59054;SDS011;44845;51.444;7.460;2022-10-18T12:18:02;49.17;;;29.00;;
59054;SDS011;44845;51.444;7.460;2022-10-18T12:20:35;39.95;;;27.00;;
59054;SDS011;44845;51.444;7.460;2022-10-18T12:23:04;33.25;;;24.85;;
59054;SDS011;44845;51.444;7.460;2022-10-18T12:25:36;32.53;;;25.35;;
59054;SDS011;44845;51.444;7.460;2022-10-18T12:33:49;39.58;;;25.05;;
59054;SDS011;44845;51.444;7.460;2022-10-18T12:38:47;34.15;;;22.55;;
59054;SDS011;44845;51.444;7.460;2022-10-18T12:41:24;32.30;;;22.15;;
59054;SDS011;44845;51.444;7.460;2022-10-18T12:43:53;29.50;;;21.65;;
59054;SDS011;44845;51.444;7.460;2022-10-18T12:46:22;28.42;;;21.33;;
59054;SDS011;44845;51.444;7.460;2022-10-18T12:48:49;34.65;;;20.90;;
59054;SDS011;44845;51.444;7.460;2022-10-18T12:51:27;25.52;;;17.88;;
59054;SDS011;44845;51.444;7.460;2022-10-18T12:54:08;28.77;;;18.88;;
59054;SDS011;44845;51.444;7.460;2022-10-18T12:56:36;27.05;;;17.55;;
59054;SDS011;44845;51.444;7.460;2022-10-18T13:09:41;21.42;;;12.70;;
59054;SDS011;44845;51.444;7.460;2022-10-18T13:23:09;15.63;;;12.18;;
59054;SDS011;44845;51.444;7.460;2022-10-18T13:26:13;23.90;;;12.90;;
59054;SDS011;44845;51.444;7.460;2022-10-18T13:28:59;21.67;;;12.43;;
59054;SDS011;44845;51.444;7.460;2022-10-18T13:34:42;18.55;;;12.68;;
59054;SDS011;44845;51.444;7.460;2022-10-18T13:39:33;19.48;;;12.50;;
59054;SDS011;44845;51.444;7.460;2022-10-18T13:44:36;22.40;;;11.40;;
59054;SDS011;44845;51.444;7.460;2022-10-18T13:52:03;15.18;;;10.50;;
59054;SDS011;44845;51.444;7.460;2022-10-18T13:54:45;14.95;;;8.27;;
59054;SDS011;44845;51.444;7.460;2022-10-18T14:00:25;11.13;;;4.45;;
59054;SDS011;44845;51.444;7.460;2022-10-18T14:05:53;7.20;;;3.50;;
59054;SDS011;44845;51.444;7.460;2022-10-18T14:08:25;7.88;;;4.10;;
59054;SDS011;44845;51.444;7.460;2022-10-18T14:11:03;9.77;;;3.72;;
59054;SDS011;44845;51.444;7.460;2022-10-18T14:13:47;8.77;;;3.15;;
59054;SDS011;44845;51.444;7.460;2022-10-18T14:16:34;7.15;;;3.45;;
59054;SDS011;44845;51.444;7.460;2022-10-18T14:19:07;12.20;;;3.85;;
59054;SDS011;44845;51.444;7.460;2022-10-18T14:21:55;9.25;;;3.80;;
59054;SDS011;44845;51.444;7.460;2022-10-18T14:24:27;12.02;;;3.85;;
59054;SDS011;44845;51.444;7.460;2022-10-18T14:32:53;13.77;;;3.85;;
59054;SDS011;44845;51.444;7.460;2022-10-18T14:35:23;9.60;;;4.22;;
59054;SDS011;44845;51.444;7.460;2022-10-18T14:37:50;12.80;;;3.78;;
59054;SDS011;44845;51.444;7.460;2022-10-18T14:40:34;9.90;;;3.47;;
59054;SDS011;44845;51.444;7.460;2022-10-18T14:43:03;8.40;;;2.78;;
59054;SDS011;44845;51.444;7.460;2022-10-18T14:45:33;9.50;;;2.92;;
59054;SDS011;44845;51.444;7.460;2022-10-18T14:48:12;7.03;;;2.63;;
59054;SDS011;44845;51.444;7.460;2022-10-18T14:50:42;9.43;;;2.92;;
59054;SDS011;44845;51.444;7.460;2022-10-18T14:53:13;7.85;;;2.78;;
59054;SDS011;44845;51.444;7.460;2022-10-18T14:58:17;5.32;;;2.35;;
59054;SDS011;44845;51.444;7.460;2022-10-18T15:00:43;7.53;;;2.33;;
59054;SDS011;44845;51.444;7.460;2022-10-18T15:03:11;7.70;;;2.20;;
59054;SDS011;44845;51.444;7.460;2022-10-18T15:05:50;7.80;;;2.15;;
59054;SDS011;44845;51.444;7.460;2022-10-18T15:08:17;11.35;;;3.00;;
59054;SDS011;44845;51.444;7.460;2022-10-18T15:10:43;12.15;;;2.42;;
59054;SDS011;44845;51.444;7.460;2022-10-18T15:13:09;8.50;;;2.30;;
59054;SDS011;44845;51.444;7.460;2022-10-18T15:15:37;10.20;;;2.80;;
59054;SDS011;44845;51.444;7.460;2022-10-18T15:18:03;15.10;;;3.35;;
59054;SDS011;44845;51.444;7.460;2022-10-18T15:20:31;8.15;;;2.53;;
59054;SDS011;44845;51.444;7.460;2022-10-18T15:23:26;20.17;;;3.20;;
59054;SDS011;44845;51.444;7.460;2022-10-18T15:26:04;11.65;;;2.65;;
59054;SDS011;44845;51.444;7.460;2022-10-18T15:28:36;8.38;;;2.13;;
59054;SDS011;44845;51.444;7.460;2022-10-18T15:31:31;7.35;;;1.83;;
59054;SDS011;44845;51.444;7.460;2022-10-18T15:34:32;6.03;;;1.88;;
59054;SDS011;44845;51.444;7.460;2022-10-18T15:36:51;12.85;;;2.00;;
59054;SDS011;44845;51.444;7.460;2022-10-18T15:39:22;13.32;;;2.05;;
59054;SDS011;44845;51.444;7.460;2022-10-18T15:46:48;7.72;;;2.45;;
59054;SDS011;44845;51.444;7.460;2022-10-18T15:51:48;7.95;;;2.00;;
59054;SDS011;44845;51.444;7.460;2022-10-18T15:54:37;9.43;;;2.40;;
59054;SDS011;44845;51.444;7.460;2022-10-18T15:57:05;10.85;;;2.00;;
59054;SDS011;44845;51.444;7.460;2022-10-18T15:59:32;9.85;;;2.20;;
59054;SDS011;44845;51.444;7.460;2022-10-18T16:01:57;6.10;;;1.80;;
59054;SDS011;44845;51.444;7.460;2022-10-18T16:04:27;13.85;;;2.00;;
59054;SDS011;44845;51.444;7.460;2022-10-18T16:06:54;11.35;;;1.90;;
59054;SDS011;44845;51.444;7.460;2022-10-18T16:09:21;6.50;;;2.00;;
59054;SDS011;44845;51.444;7.460;2022-10-18T16:11:48;9.32;;;2.05;;
59054;SDS011;44845;51.444;7.460;2022-10-18T16:14:15;5.88;;;1.83;;
59054;SDS011;44845;51.444;7.460;2022-10-18T16:16:44;10.00;;;1.70;;
59054;SDS011;44845;51.444;7.460;2022-10-18T16:19:14;6.18;;;1.52;;
59054;SDS011;44845;51.444;7.460;2022-10-18T16:21:42;5.95;;;1.70;;
59054;SDS011;44845;51.444;7.460;2022-10-18T16:24:08;7.93;;;2.08;;
59054;SDS011;44845;51.444;7.460;2022-10-18T16:26:33;8.30;;;2.22;;
59054;SDS011;44845;51.444;7.460;2022-10-18T16:28:59;6.45;;;1.92;;
59054;SDS011;44845;51.444;7.460;2022-10-18T16:31:29;6.57;;;1.90;;
59054;SDS011;44845;51.444;7.460;2022-10-18T16:33:56;10.43;;;1.95;;
59054;SDS011;44845;51.444;7.460;2022-10-18T16:36:26;11.10;;;1.90;;
59054;SDS011;44845;51.444;7.460;2022-10-18T16:38:53;8.85;;;2.20;;
59054;SDS011;44845;51.444;7.460;2022-10-18T16:41:20;6.13;;;2.20;;
59054;SDS011;44845;51.444;7.460;2022-10-18T16:43:47;10.05;;;2.17;;
59054;SDS011;44845;51.444;7.460;2022-10-18T16:46:17;8.48;;;2.45;;
59054;SDS011;44845;51.444;7.460;2022-10-18T16:48:45;10.95;;;2.10;;
59054;SDS011;44845;51.444;7.460;2022-10-18T16:51:12;11.05;;;1.88;;
59054;SDS011;44845;51.444;7.460;2022-10-18T16:53:37;15.43;;;2.30;;
59054;SDS011;44845;51.444;7.460;2022-10-18T16:56:03;9.55;;;3.30;;
59054;SDS011;44845;51.444;7.460;2022-10-18T16:58:30;14.82;;;3.75;;
59054;SDS011;44845;51.444;7.460;2022-10-18T17:00:57;11.50;;;3.80;;
59054;SDS011;44845;51.444;7.460;2022-10-18T17:03:23;12.00;;;4.72;;
59054;SDS011;44845;51.444;7.460;2022-10-18T17:05:49;12.77;;;6.60;;
59054;SDS011;44845;51.444;7.460;2022-10-18T17:08:16;21.13;;;6.82;;
59054;SDS011;44845;51.444;7.460;2022-10-18T17:10:43;18.08;;;6.93;;